aviador You're here:

OMRK Decoded Metar

RAS AL KHAIMAH in UNITED ARAB EMIRATES
Report Time2018-01-17 01:00:00
UTC Time2018-01-17 01:18:38
Flight Rules vfr VFR
Wind190° at 07 kt
W.Decomp.*RWY 16: 6.1 kt HW 3.4 kt RCW
W.Rank190° ranks 5
Current wind is above 190° avg. (5.1)
Visibility9999 m
Phenomena:N/A
Clouds:Scattered 040 Hf
Expected CloudBase > 2,000 ft AGL from Temp-Dew spread
CeilingNone
Temp16°C (ISA +1)
Dew Point11°C (72% RH)
AAT13.8°C
QNH1014 hPa
Density Alt387 ft
Elevation102 ft
Report Wrong Elevation
Raw Report
OMRK 170100Z 19007KT 9999 SCT040 16/11 Q1014 A2996=

Extra information for OMRK:More info

Metar Taf Metar & Taf Last 4 Metars F.Rules Stats Wind Profile Meteogram Temp Stats Airport Information Weather charts Add Link Nearby VenuesMetar ALERT Operation Metar Decoded Social comments